createdAt,value
2022-10-03T00:01:21.981Z,99361.63
2022-10-03T00:04:08.032Z,99361.47
2022-10-03T00:07:21.493Z,99367.00
2022-10-03T00:10:07.235Z,99369.88
2022-10-03T00:12:40.464Z,99374.78
2022-10-03T00:15:42.339Z,99373.38
2022-10-03T00:18:47.588Z,99371.22
2022-10-03T00:21:37.901Z,99364.97
2022-10-03T00:24:21.656Z,99363.84
2022-10-03T00:27:17.477Z,99355.28
2022-10-03T00:29:51.358Z,99365.72
2022-10-03T00:32:37.041Z,99364.69
2022-10-03T00:35:35.177Z,99358.66
2022-10-03T00:38:27.434Z,99358.00
2022-10-03T00:41:03.632Z,99359.16
2022-10-03T00:44:31.864Z,99356.97
2022-10-03T00:47:30.413Z,99359.34
2022-10-03T00:50:16.702Z,99358.84
2022-10-03T00:53:03.031Z,99349.78
2022-10-03T00:55:54.896Z,99352.63
2022-10-03T00:58:53.052Z,99352.28
2022-10-03T01:01:24.933Z,99354.81
2022-10-03T01:04:11.011Z,99351.97
2022-10-03T01:07:11.043Z,99356.50
2022-10-03T01:09:38.122Z,99349.09
2022-10-03T01:12:37.724Z,99344.88
2022-10-03T01:15:24.587Z,99345.56
2022-10-03T01:18:03.458Z,99337.50
2022-10-03T01:20:45.069Z,99330.63
2022-10-03T01:23:30.414Z,99332.44
2022-10-03T01:26:32.632Z,99346.66
2022-10-03T01:29:37.224Z,99346.19
2022-10-03T01:32:16.339Z,99336.75
2022-10-03T01:35:22.622Z,99340.34
2022-10-03T01:38:20.875Z,99336.50
2022-10-03T01:41:01.122Z,99347.56
2022-10-03T01:43:42.609Z,99344.22
2022-10-03T01:46:39.056Z,99332.81
2022-10-03T01:49:16.513Z,99335.13
2022-10-03T01:52:11.546Z,99336.50
2022-10-03T01:55:12.753Z,99312.97
2022-10-03T01:58:07.560Z,99331.78
2022-10-03T02:00:46.717Z,99337.19
2022-10-03T02:03:25.355Z,99344.56
2022-10-03T02:06:17.740Z,99328.28
2022-10-03T02:08:50.270Z,99339.69
2022-10-03T02:11:50.216Z,99348.94
2022-10-03T02:14:42.232Z,99335.31
2022-10-03T02:17:47.650Z,99357.00
2022-10-03T02:20:43.370Z,99357.31
2022-10-03T02:23:46.238Z,99360.19
2022-10-03T02:26:46.934Z,99357.66
2022-10-03T02:29:29.283Z,99365.25
2022-10-03T02:32:27.673Z,99362.88
2022-10-03T02:35:30.350Z,99359.19
2022-10-03T02:38:19.826Z,99366.06
2022-10-03T02:41:00.445Z,99377.34
2022-10-03T02:43:49.553Z,99381.19
2022-10-03T02:46:54.339Z,99389.28
2022-10-03T02:49:51.449Z,99388.94
2022-10-03T02:52:30.506Z,99386.06
2022-10-03T02:55:06.620Z,99410.63
2022-10-03T02:57:42.794Z,99399.00
2022-10-03T03:00:14.717Z,99405.72
2022-10-03T03:03:01.467Z,99402.03
2022-10-03T03:06:03.784Z,99411.59
2022-10-03T03:09:00.345Z,99412.44
2022-10-03T03:11:48.964Z,99418.69
2022-10-03T03:14:42.035Z,99423.41
2022-10-03T03:17:34.300Z,99422.03
2022-10-03T03:20:13.387Z,99423.56
2022-10-03T03:23:10.811Z,99434.13
2022-10-03T03:26:08.183Z,99426.88
2022-10-03T03:28:45.447Z,99425.53
2022-10-03T03:31:17.177Z,99419.47
2022-10-03T03:34:19.161Z,99432.25
2022-10-03T03:36:52.145Z,99440.97
2022-10-03T03:39:40.600Z,99450.97
2022-10-03T03:42:32.010Z,99443.88
2022-10-03T03:45:11.381Z,99446.03
2022-10-03T03:48:18.899Z,99437.25
2022-10-03T03:51:02.740Z,99452.13
2022-10-03T03:53:38.945Z,99447.47
2022-10-03T03:56:25.195Z,99447.53
2022-10-03T03:59:02.805Z,99455.66
2022-10-03T04:01:49.312Z,99464.88
2022-10-03T04:04:41.366Z,99458.19
2022-10-03T04:07:27.449Z,99476.47
2022-10-03T04:10:26.866Z,99474.50
2022-10-03T04:13:25.393Z,99475.00
2022-10-03T04:16:04.803Z,99486.00
2022-10-03T04:18:59.671Z,99481.69
2022-10-03T04:21:57.916Z,99488.56
2022-10-03T04:25:05.509Z,99501.34
2022-10-03T04:27:38.753Z,99500.34
2022-10-03T04:30:10.029Z,99502.34
2022-10-03T04:33:14.722Z,99506.22
2022-10-03T04:35:50.911Z,99512.47
2022-10-03T04:38:27.183Z,99513.66
2022-10-03T04:41:13.150Z,99513.63
2022-10-03T04:43:54.956Z,99517.53
2022-10-03T04:46:38.393Z,99520.56
2022-10-03T04:49:26.930Z,99514.34
2022-10-03T04:52:01.172Z,99530.16
2022-10-03T04:54:44.634Z,99523.94
2022-10-03T04:57:44.445Z,99541.25
2022-10-03T05:00:14.637Z,99547.66
2022-10-03T05:03:26.907Z,99551.00
2022-10-03T05:06:17.802Z,99554.19
2022-10-03T05:09:01.388Z,99543.44
2022-10-03T05:11:55.097Z,99559.06
2022-10-03T05:14:40.481Z,99555.88
2022-10-03T05:17:19.863Z,99548.66
2022-10-03T05:20:13.445Z,99556.53
2022-10-03T05:23:05.230Z,99565.97
2022-10-03T05:26:23.171Z,99570.84
2022-10-03T05:29:16.005Z,99573.53
2022-10-03T05:31:53.779Z,99592.38
2022-10-03T05:34:48.918Z,99585.00
2022-10-03T05:37:44.130Z,99600.47
2022-10-03T05:40:24.997Z,99604.34
2022-10-03T05:42:58.314Z,99608.91
2022-10-03T05:46:01.178Z,99624.03
2022-10-03T05:48:48.965Z,99626.56
2022-10-03T05:51:16.212Z,99628.25
2022-10-03T05:53:58.794Z,99636.81
2022-10-03T05:56:58.341Z,99632.78
2022-10-03T05:59:41.102Z,99642.72
2022-10-03T06:02:45.577Z,99650.28
2022-10-03T06:05:25.228Z,99650.28
2022-10-03T06:07:55.041Z,99673.03
2022-10-03T06:10:34.215Z,99672.19
2022-10-03T06:13:39.203Z,99676.56
2022-10-03T06:16:41.381Z,99688.53
2022-10-03T06:19:49.791Z,99689.50
2022-10-03T06:22:44.537Z,99690.69
2022-10-03T06:25:39.978Z,99693.59
2022-10-03T06:28:38.409Z,99703.22
2022-10-03T06:31:49.322Z,99719.69
2022-10-03T06:34:54.024Z,99709.94
2022-10-03T06:37:52.643Z,99719.47
2022-10-03T06:40:48.469Z,99728.97
2022-10-03T06:43:22.159Z,99737.19
2022-10-03T06:46:25.664Z,99730.00
2022-10-03T06:49:01.666Z,99758.09
2022-10-03T06:52:01.412Z,99758.59
2022-10-03T06:55:05.770Z,99767.22
2022-10-03T06:57:51.688Z,99772.97
2022-10-03T07:00:18.795Z,99770.53
2022-10-03T07:03:21.718Z,99783.38
2022-10-03T07:05:58.883Z,99786.16
2022-10-03T07:08:52.759Z,99783.91
2022-10-03T07:11:32.649Z,99797.50
2022-10-03T07:14:18.846Z,99775.66
2022-10-03T07:17:11.901Z,99791.34
2022-10-03T07:19:48.218Z,99800.25
2022-10-03T07:22:33.493Z,99794.28
2022-10-03T07:25:24.360Z,99806.84
2022-10-03T07:28:24.800Z,99807.41
2022-10-03T07:31:23.075Z,99806.84
2022-10-03T07:34:18.520Z,99808.59
2022-10-03T07:37:23.707Z,99816.84
2022-10-03T07:40:24.348Z,99811.16
2022-10-03T07:43:19.464Z,99819.19
2022-10-03T07:46:24.925Z,99806.19
2022-10-03T07:49:13.948Z,99825.22
2022-10-03T07:52:23.510Z,99815.09
2022-10-03T07:55:09.612Z,99814.16
2022-10-03T07:57:58.568Z,99834.44
2022-10-03T08:00:40.695Z,99829.94
2022-10-03T08:03:41.350Z,99822.69
2022-10-03T08:06:18.863Z,99833.50
2022-10-03T08:09:07.032Z,99848.00
2022-10-03T08:11:52.756Z,99855.47
2022-10-03T08:14:41.505Z,99866.75
2022-10-03T08:17:30.036Z,99875.69
2022-10-03T08:20:18.792Z,99875.19
2022-10-03T08:22:59.842Z,99881.56
2022-10-03T08:25:40.329Z,99889.34
2022-10-03T08:28:32.955Z,99887.53
2022-10-03T08:31:25.545Z,99891.22
2022-10-03T08:33:56.011Z,99889.91
2022-10-03T08:36:32.389Z,99909.13
2022-10-03T08:39:11.912Z,99910.16
2022-10-03T08:41:57.372Z,99916.56
2022-10-03T08:44:52.756Z,99927.38
2022-10-03T08:47:43.576Z,99912.53
2022-10-03T08:50:29.209Z,99922.81
2022-10-03T08:53:37.200Z,99929.41
2022-10-03T08:56:49.568Z,99923.81
2022-10-03T08:59:37.750Z,99936.81
2022-10-03T09:02:24.380Z,99942.53
2022-10-03T09:05:00.415Z,99939.94
2022-10-03T09:08:10.169Z,99938.84
2022-10-03T09:11:04.807Z,99950.84
2022-10-03T09:14:18.216Z,99945.25
2022-10-03T09:17:17.801Z,99943.69
2022-10-03T09:20:00.689Z,99957.13
2022-10-03T09:23:01.273Z,99960.06
2022-10-03T09:26:07.446Z,99963.19
2022-10-03T09:29:19.435Z,99972.13
2022-10-03T09:32:08.952Z,99968.81
2022-10-03T09:35:13.931Z,99966.19
2022-10-03T09:38:22.110Z,99964.19
2022-10-03T09:41:28.621Z,99968.19
2022-10-03T09:44:17.958Z,99969.53
2022-10-03T09:47:10.518Z,99982.34
2022-10-03T09:50:36.635Z,99975.44
2022-10-03T09:53:12.792Z,99979.75
2022-10-03T09:56:04.916Z,99973.59
2022-10-03T09:58:53.852Z,99963.88
2022-10-03T10:01:32.957Z,99970.00
2022-10-03T10:04:37.436Z,99971.03
2022-10-03T10:07:36.046Z,99969.16
2022-10-03T10:10:56.417Z,99974.00
2022-10-03T10:14:05.816Z,99978.50
2022-10-03T10:16:38.457Z,99986.59
2022-10-03T10:19:41.886Z,99995.31
2022-10-03T10:22:27.643Z,100003.00
2022-10-03T10:25:00.802Z,99992.63
2022-10-03T10:27:33.958Z,100002.47
2022-10-03T10:30:09.862Z,99996.41
2022-10-03T10:33:12.161Z,100003.41
2022-10-03T10:36:10.507Z,100014.34
2022-10-03T10:39:17.291Z,100013.63
2022-10-03T10:41:44.581Z,100016.38
2022-10-03T10:44:17.839Z,100016.13
2022-10-03T10:47:04.131Z,100019.06
2022-10-03T10:50:08.474Z,100025.50
2022-10-03T10:52:54.278Z,100022.66
2022-10-03T10:55:33.439Z,100025.47
2022-10-03T10:58:45.381Z,100029.97
2022-10-03T11:01:45.975Z,100043.41
2022-10-03T11:04:38.095Z,100036.22
2022-10-03T11:07:08.342Z,100027.34
2022-10-03T11:10:00.746Z,100032.81
2022-10-03T11:12:44.230Z,100029.16
2022-10-03T11:15:47.865Z,100024.16
2022-10-03T11:18:33.723Z,100024.06
2022-10-03T11:21:42.738Z,100023.88
2022-10-03T11:24:28.197Z,100030.13
2022-10-03T11:27:43.680Z,100026.22
2022-10-03T11:30:20.107Z,100037.72
2022-10-03T11:33:25.596Z,100029.09
2022-10-03T11:36:25.356Z,100027.38
2022-10-03T11:39:02.437Z,100029.34
2022-10-03T11:41:39.394Z,100035.28
2022-10-03T11:44:30.691Z,100036.34
2022-10-03T11:47:13.732Z,100046.16
2022-10-03T11:49:54.959Z,100036.72
2022-10-03T11:52:49.853Z,100051.91
2022-10-03T11:55:42.210Z,100057.94
2022-10-03T11:58:24.607Z,100048.34
2022-10-03T12:01:18.167Z,100052.53
2022-10-03T12:04:15.122Z,100059.34
2022-10-03T12:07:23.709Z,100056.63
2022-10-03T12:10:24.975Z,100059.34
2022-10-03T12:12:55.791Z,100055.28
2022-10-03T12:15:44.128Z,100070.81
2022-10-03T12:18:25.850Z,100053.94
2022-10-03T12:21:05.051Z,100065.75
2022-10-03T12:23:53.837Z,100060.31
2022-10-03T12:26:37.689Z,100070.81
2022-10-03T12:29:08.968Z,100057.81
2022-10-03T12:31:48.780Z,100057.81
2022-10-03T12:34:44.408Z,100059.44
2022-10-03T12:37:35.676Z,100063.53
2022-10-03T12:40:24.304Z,100066.00
2022-10-03T12:43:42.400Z,100068.75
2022-10-03T12:46:19.326Z,100059.81
2022-10-03T12:48:56.618Z,100068.22
2022-10-03T12:51:36.180Z,100077.13
2022-10-03T12:54:25.889Z,100068.03
2022-10-03T12:57:35.332Z,100067.47
2022-10-03T13:00:07.586Z,100067.94
2022-10-03T13:02:48.804Z,100075.47
2022-10-03T13:05:55.824Z,100064.66
2022-10-03T13:08:40.991Z,100066.63
2022-10-03T13:11:28.844Z,100068.88
2022-10-03T13:14:15.730Z,100048.50
2022-10-03T13:17:15.186Z,100070.81
2022-10-03T13:20:11.474Z,100061.34
2022-10-03T13:22:52.366Z,100069.25
2022-10-03T13:25:32.215Z,100057.25
2022-10-03T13:28:15.474Z,100076.84
2022-10-03T13:30:51.981Z,100083.94
2022-10-03T13:33:29.550Z,100078.72
2022-10-03T13:36:13.010Z,100084.31
2022-10-03T13:39:09.908Z,100086.47
2022-10-03T13:42:10.476Z,100095.75
2022-10-03T13:44:56.674Z,100096.75
2022-10-03T13:47:31.606Z,100097.41
2022-10-03T13:50:26.121Z,100089.81
2022-10-03T13:53:01.152Z,100084.44
2022-10-03T13:55:47.936Z,100094.91
2022-10-03T13:58:38.372Z,100094.59
2022-10-03T14:01:14.305Z,100097.16
2022-10-03T14:04:21.743Z,100091.31
2022-10-03T14:07:11.945Z,100093.91
2022-10-03T14:09:39.340Z,100098.41
2022-10-03T14:12:56.160Z,100101.13
2022-10-03T14:15:40.903Z,100090.28
2022-10-03T14:18:10.962Z,100093.97
2022-10-03T14:20:53.543Z,100099.25
2022-10-03T14:23:33.321Z,100109.28
2022-10-03T14:26:12.774Z,100110.47
2022-10-03T14:28:53.309Z,100105.41
2022-10-03T14:31:32.770Z,100120.13
2022-10-03T14:34:36.239Z,100111.63
2022-10-03T14:37:36.616Z,100108.47
2022-10-03T14:40:37.857Z,100105.09
2022-10-03T14:43:05.190Z,100108.97
2022-10-03T14:45:43.411Z,100095.47
2022-10-03T14:48:50.198Z,100104.59
2022-10-03T14:51:26.317Z,100105.94
2022-10-03T14:53:58.032Z,100100.53
2022-10-03T14:56:26.719Z,100099.00
2022-10-03T14:58:57.268Z,100109.97
2022-10-03T15:01:26.145Z,100096.47
2022-10-03T15:04:01.955Z,100105.41
2022-10-03T15:06:44.636Z,100101.00
2022-10-03T15:09:21.999Z,100102.19
2022-10-03T15:11:55.969Z,100098.50
2022-10-03T15:14:27.883Z,100096.75
2022-10-03T15:16:57.820Z,100101.00
2022-10-03T15:19:37.240Z,100111.94
2022-10-03T15:22:43.153Z,100111.59
2022-10-03T15:25:19.966Z,100113.84
2022-10-03T15:27:52.206Z,100113.16
2022-10-03T15:30:31.460Z,100119.41
2022-10-03T15:33:29.428Z,100116.03
2022-10-03T15:36:12.793Z,100122.66
2022-10-03T15:38:43.570Z,100119.78
2022-10-03T15:41:17.147Z,100104.84
2022-10-03T15:43:57.655Z,100123.38
2022-10-03T15:46:43.493Z,100124.22
2022-10-03T15:49:20.969Z,100116.59
2022-10-03T15:51:48.985Z,100120.47
2022-10-03T15:54:23.090Z,100110.63
2022-10-03T15:57:01.539Z,100111.25
2022-10-03T15:59:34.785Z,100116.75
2022-10-03T16:02:32.750Z,100109.63
2022-10-03T16:05:02.983Z,100117.31
2022-10-03T16:07:39.089Z,100116.66
2022-10-03T16:10:28.371Z,100113.59
2022-10-03T16:13:04.688Z,100120.00
2022-10-03T16:16:09.430Z,100115.75
2022-10-03T16:18:49.331Z,100117.84
2022-10-03T16:21:45.244Z,100104.06
2022-10-03T16:24:32.909Z,100117.31
2022-10-03T16:27:22.936Z,100105.69
2022-10-03T16:29:54.995Z,100108.84
2022-10-03T16:32:29.769Z,100108.97
2022-10-03T16:35:07.041Z,100104.69
2022-10-03T16:37:39.890Z,100115.69
2022-10-03T16:40:08.721Z,100095.94
2022-10-03T16:42:43.044Z,100101.31
2022-10-03T16:45:31.039Z,100106.22
2022-10-03T16:48:21.497Z,100100.25
2022-10-03T16:50:53.641Z,100101.38
2022-10-03T16:53:22.518Z,100103.22
2022-10-03T16:55:57.830Z,100103.22
2022-10-03T16:58:41.742Z,100098.28
2022-10-03T17:01:26.816Z,100091.84
2022-10-03T17:04:01.722Z,100099.59
2022-10-03T17:06:35.942Z,100089.88
2022-10-03T17:09:08.326Z,100085.63
2022-10-03T17:11:38.683Z,100092.91
2022-10-03T17:14:09.260Z,100088.00
2022-10-03T17:16:44.204Z,100093.63
2022-10-03T17:19:39.663Z,100086.09
2022-10-03T17:22:30.261Z,100071.88
2022-10-03T17:25:39.151Z,100082.00
2022-10-03T17:28:12.126Z,100070.09
2022-10-03T17:30:48.931Z,100079.25
2022-10-03T17:33:38.217Z,100071.47
2022-10-03T17:36:32.431Z,100070.69
2022-10-03T17:39:05.678Z,100080.38
2022-10-03T17:41:47.494Z,100066.00
2022-10-03T17:44:47.309Z,100072.59
2022-10-03T17:47:23.794Z,100068.69
2022-10-03T17:50:19.294Z,100075.31
2022-10-03T17:52:48.942Z,100074.31
2022-10-03T17:55:27.388Z,100058.06
2022-10-03T17:58:07.260Z,100071.31
2022-10-03T18:00:56.659Z,100069.56
2022-10-03T18:03:33.098Z,100077.44
2022-10-03T18:06:23.050Z,100073.25
2022-10-03T18:08:52.302Z,100066.16
2022-10-03T18:11:24.779Z,100081.84
2022-10-03T18:14:27.572Z,100059.63
2022-10-03T18:16:59.272Z,100070.09
2022-10-03T18:19:50.941Z,100071.16
2022-10-03T18:22:30.697Z,100054.63
2022-10-03T18:25:38.760Z,100052.94
2022-10-03T18:28:24.479Z,100050.09
2022-10-03T18:31:25.459Z,100049.66
2022-10-03T18:34:00.108Z,100044.41
2022-10-03T18:36:31.772Z,100055.84
2022-10-03T18:39:03.678Z,100047.66
2022-10-03T18:41:31.390Z,100056.16
2022-10-03T18:44:00.699Z,100055.25
2022-10-03T18:46:35.745Z,100048.09
2022-10-03T18:49:30.111Z,100056.75
2022-10-03T18:52:03.438Z,100050.47
2022-10-03T18:54:56.639Z,100051.34
2022-10-03T18:57:34.258Z,100054.25
2022-10-03T19:00:08.233Z,100054.66
2022-10-03T19:03:16.761Z,100056.53
2022-10-03T19:05:59.144Z,100047.66
2022-10-03T19:08:41.404Z,100041.47
2022-10-03T19:11:29.501Z,100047.03
2022-10-03T19:14:11.998Z,100041.59
2022-10-03T19:17:17.290Z,100051.00
2022-10-03T19:19:56.513Z,100045.50
2022-10-03T19:22:40.819Z,100043.28
2022-10-03T19:25:19.328Z,100052.53
2022-10-03T19:27:53.014Z,100042.59
2022-10-03T19:30:26.891Z,100044.00
2022-10-03T19:32:59.198Z,100039.19
2022-10-03T19:35:28.562Z,100029.63
2022-10-03T19:38:04.187Z,100028.91
2022-10-03T19:40:53.529Z,100030.03
2022-10-03T19:43:37.771Z,100034.72
2022-10-03T19:46:23.327Z,100035.88
2022-10-03T19:49:30.863Z,100034.22
2022-10-03T19:52:34.556Z,100028.72
2022-10-03T19:55:24.913Z,100026.06
2022-10-03T19:57:53.871Z,100026.94
2022-10-03T20:00:28.169Z,100022.78
2022-10-03T20:02:58.498Z,100020.84
2022-10-03T20:06:12.607Z,100018.00
2022-10-03T20:08:39.844Z,100018.88
2022-10-03T20:11:21.626Z,100015.66
2022-10-03T20:13:50.133Z,100016.06
2022-10-03T20:16:35.891Z,100021.56
2022-10-03T20:19:16.536Z,100006.31
2022-10-03T20:21:53.383Z,100020.41
2022-10-03T20:24:34.014Z,100021.44
2022-10-03T20:27:42.498Z,100013.81
2022-10-03T20:30:31.374Z,100015.38
2022-10-03T20:32:59.714Z,99999.69
2022-10-03T20:35:32.142Z,100008.44
2022-10-03T20:38:23.258Z,100005.47
2022-10-03T20:41:10.071Z,100005.19
2022-10-03T20:43:59.901Z,100004.03
2022-10-03T20:46:40.797Z,99994.47
2022-10-03T20:49:15.829Z,100005.41
2022-10-03T20:52:05.662Z,100001.44
2022-10-03T20:54:55.981Z,100007.69
2022-10-03T20:57:32.447Z,100003.63
2022-10-03T21:00:16.262Z,100006.44
2022-10-03T21:03:04.167Z,99996.72
2022-10-03T21:05:38.112Z,99997.19
2022-10-03T21:08:22.463Z,99992.53
2022-10-03T21:10:59.161Z,99995.03
2022-10-03T21:13:26.485Z,99996.63
2022-10-03T21:16:00.218Z,99991.63
2022-10-03T21:18:38.043Z,99991.53
2022-10-03T21:21:12.713Z,100002.66
2022-10-03T21:23:53.807Z,99997.47
2022-10-03T21:26:24.909Z,100008.63
2022-10-03T21:29:17.163Z,100006.63
2022-10-03T21:32:10.182Z,100005.50
2022-10-03T21:34:40.173Z,100005.22
2022-10-03T21:37:22.714Z,99999.03
2022-10-03T21:40:03.487Z,100002.16
2022-10-03T21:42:44.963Z,100000.16
2022-10-03T21:45:26.664Z,100007.78
2022-10-03T21:48:23.390Z,99996.50
2022-10-03T21:50:58.442Z,99999.16
2022-10-03T21:53:53.013Z,100011.72
2022-10-03T21:56:54.904Z,100009.47
2022-10-03T21:59:34.150Z,100005.66
2022-10-03T22:02:01.826Z,100008.19
2022-10-03T22:04:48.753Z,100010.88
2022-10-03T22:07:18.942Z,100010.75
2022-10-03T22:09:49.817Z,100016.09
2022-10-03T22:12:18.070Z,100037.88
2022-10-03T22:14:55.628Z,100039.56
2022-10-03T22:17:42.648Z,100044.97
2022-10-03T22:20:54.519Z,100050.88
2022-10-03T22:23:35.163Z,100055.97
2022-10-03T22:26:26.941Z,100047.22
2022-10-03T22:29:12.619Z,100033.91
2022-10-03T22:31:50.281Z,100036.97
2022-10-03T22:34:35.051Z,100044.00
2022-10-03T22:37:02.760Z,100031.66
2022-10-03T22:39:30.736Z,100035.81
2022-10-03T22:42:03.226Z,100041.38
2022-10-03T22:44:34.266Z,100037.03
2022-10-03T22:47:15.783Z,100036.88
2022-10-03T22:49:46.140Z,100034.22
2022-10-03T22:52:27.287Z,100029.78
2022-10-03T22:54:56.752Z,100011.16
2022-10-03T22:57:25.710Z,100014.09
2022-10-03T23:00:14.894Z,100012.72
2022-10-03T23:02:51.285Z,100010.44
2022-10-03T23:05:40.700Z,100005.94
2022-10-03T23:08:17.333Z,100012.31
2022-10-03T23:11:04.429Z,100015.97
2022-10-03T23:13:39.515Z,100010.72
2022-10-03T23:16:29.226Z,100006.06
2022-10-03T23:19:22.880Z,100016.44
2022-10-03T23:21:51.740Z,100019.34
2022-10-03T23:24:37.116Z,100009.09
2022-10-03T23:27:34.890Z,100016.34
2022-10-03T23:30:17.330Z,100027.50
2022-10-03T23:32:47.394Z,100017.03
2022-10-03T23:35:30.955Z,100010.16
2022-10-03T23:38:01.561Z,100007.22
2022-10-03T23:40:47.579Z,100015.97
2022-10-03T23:43:33.634Z,100013.72
2022-10-03T23:46:04.525Z,100007.22
2022-10-03T23:48:42.809Z,100025.28
2022-10-03T23:51:15.273Z,100008.75
2022-10-03T23:53:47.046Z,100008.63
2022-10-03T23:56:41.308Z,100013.16
2022-10-03T23:59:16.036Z,100018.09
